sensor_id;sensor_type;location;lat;lon;timestamp;temperature;humidity
152;DHT22;68;48.792;9.164;2023-03-01T00:02:19;-0.30;89.50
152;DHT22;68;48.792;9.164;2023-03-01T00:04:46;-0.40;89.10
152;DHT22;68;48.792;9.164;2023-03-01T00:07:13;-0.50;89.20
152;DHT22;68;48.792;9.164;2023-03-01T00:09:40;-0.60;89.70
152;DHT22;68;48.792;9.164;2023-03-01T00:12:08;-0.60;90.00
152;DHT22;68;48.792;9.164;2023-03-01T00:14:35;-0.60;90.20
152;DHT22;68;48.792;9.164;2023-03-01T00:17:02;-0.60;90.60
152;DHT22;68;48.792;9.164;2023-03-01T00:19:29;-0.60;90.70
152;DHT22;68;48.792;9.164;2023-03-01T00:21:57;-0.60;90.30
152;DHT22;68;48.792;9.164;2023-03-01T00:24:24;-0.70;90.70
152;DHT22;68;48.792;9.164;2023-03-01T00:26:53;-0.70;90.70
152;DHT22;68;48.792;9.164;2023-03-01T00:29:22;-0.70;90.60
152;DHT22;68;48.792;9.164;2023-03-01T00:31:49;-0.80;90.90
152;DHT22;68;48.792;9.164;2023-03-01T00:34:15;-0.80;91.50
152;DHT22;68;48.792;9.164;2023-03-01T00:36:42;-0.80;91.10
152;DHT22;68;48.792;9.164;2023-03-01T00:39:11;-0.80;91.30
152;DHT22;68;48.792;9.164;2023-03-01T00:41:38;-0.70;91.40
152;DHT22;68;48.792;9.164;2023-03-01T00:44:05;-0.80;91.30
152;DHT22;68;48.792;9.164;2023-03-01T00:46:33;-0.80;91.30
152;DHT22;68;48.792;9.164;2023-03-01T00:49:00;-0.80;91.40
152;DHT22;68;48.792;9.164;2023-03-01T00:51:28;-0.80;91.40
152;DHT22;68;48.792;9.164;2023-03-01T00:53:56;-0.70;90.80
152;DHT22;68;48.792;9.164;2023-03-01T00:56:24;-0.70;90.70
152;DHT22;68;48.792;9.164;2023-03-01T00:58:50;-0.70;90.50
152;DHT22;68;48.792;9.164;2023-03-01T01:01:19;-0.70;90.50
152;DHT22;68;48.792;9.164;2023-03-01T01:03:49;-0.70;90.30
152;DHT22;68;48.792;9.164;2023-03-01T01:06:18;-0.70;90.30
152;DHT22;68;48.792;9.164;2023-03-01T01:08:45;-0.70;90.60
152;DHT22;68;48.792;9.164;2023-03-01T01:11:12;-0.80;91.00
152;DHT22;68;48.792;9.164;2023-03-01T01:13:40;-0.80;90.90
152;DHT22;68;48.792;9.164;2023-03-01T01:16:07;-0.80;91.10
152;DHT22;68;48.792;9.164;2023-03-01T01:18:34;-0.90;91.20
152;DHT22;68;48.792;9.164;2023-03-01T01:21:07;-0.90;91.40
152;DHT22;68;48.792;9.164;2023-03-01T01:23:35;-1.00;91.80
152;DHT22;68;48.792;9.164;2023-03-01T01:26:06;-1.00;92.00
152;DHT22;68;48.792;9.164;2023-03-01T01:28:33;-1.10;92.20
152;DHT22;68;48.792;9.164;2023-03-01T01:31:00;-1.10;92.10
152;DHT22;68;48.792;9.164;2023-03-01T01:33:27;-1.10;92.10
152;DHT22;68;48.792;9.164;2023-03-01T01:35:54;-1.00;92.20
152;DHT22;68;48.792;9.164;2023-03-01T01:38:22;-1.00;92.00
152;DHT22;68;48.792;9.164;2023-03-01T01:40:50;-1.10;92.20
152;DHT22;68;48.792;9.164;2023-03-01T01:43:20;-1.10;92.20
152;DHT22;68;48.792;9.164;2023-03-01T01:45:47;-1.10;92.20
152;DHT22;68;48.792;9.164;2023-03-01T01:48:18;-1.10;92.30
152;DHT22;68;48.792;9.164;2023-03-01T01:50:49;-1.20;92.70
152;DHT22;68;48.792;9.164;2023-03-01T01:53:19;-1.30;93.30
152;DHT22;68;48.792;9.164;2023-03-01T01:55:50;-1.30;93.60
152;DHT22;68;48.792;9.164;2023-03-01T01:58:19;-1.30;93.50
152;DHT22;68;48.792;9.164;2023-03-01T02:00:48;-1.20;93.40
152;DHT22;68;48.792;9.164;2023-03-01T02:03:18;-1.20;93.20
152;DHT22;68;48.792;9.164;2023-03-01T02:05:50;-1.10;93.10
152;DHT22;68;48.792;9.164;2023-03-01T02:08:20;-1.10;93.00
152;DHT22;68;48.792;9.164;2023-03-01T02:10:50;-1.00;92.90
152;DHT22;68;48.792;9.164;2023-03-01T02:13:18;-1.00;92.90
152;DHT22;68;48.792;9.164;2023-03-01T02:15:45;-1.10;92.60
152;DHT22;68;48.792;9.164;2023-03-01T02:18:14;-1.00;92.50
152;DHT22;68;48.792;9.164;2023-03-01T02:20:51;-0.80;92.50
152;DHT22;68;48.792;9.164;2023-03-01T02:23:19;-0.70;91.90
152;DHT22;68;48.792;9.164;2023-03-01T02:25:52;-0.60;92.10
152;DHT22;68;48.792;9.164;2023-03-01T02:28:30;-0.60;91.30
152;DHT22;68;48.792;9.164;2023-03-01T02:30:57;-0.40;91.20
152;DHT22;68;48.792;9.164;2023-03-01T02:33:53;-0.40;91.10
152;DHT22;68;48.792;9.164;2023-03-01T02:36:23;-0.80;90.70
152;DHT22;68;48.792;9.164;2023-03-01T02:38:54;-0.90;91.40
152;DHT22;68;48.792;9.164;2023-03-01T02:41:23;-0.80;92.10
152;DHT22;68;48.792;9.164;2023-03-01T02:43:52;-0.60;91.90
152;DHT22;68;48.792;9.164;2023-03-01T02:46:21;-0.70;91.30
152;DHT22;68;48.792;9.164;2023-03-01T02:48:50;-0.80;91.60
152;DHT22;68;48.792;9.164;2023-03-01T02:51:31;-0.80;92.10
152;DHT22;68;48.792;9.164;2023-03-01T02:54:09;-0.70;92.00
152;DHT22;68;48.792;9.164;2023-03-01T02:56:38;-0.80;91.90
152;DHT22;68;48.792;9.164;2023-03-01T02:59:06;-0.70;92.00
152;DHT22;68;48.792;9.164;2023-03-01T03:01:34;-0.70;91.90
152;DHT22;68;48.792;9.164;2023-03-01T03:04:04;-0.90;91.90
152;DHT22;68;48.792;9.164;2023-03-01T03:06:31;-0.90;92.40
152;DHT22;68;48.792;9.164;2023-03-01T03:08:58;-0.80;92.80
152;DHT22;68;48.792;9.164;2023-03-01T03:11:25;-0.50;92.80
152;DHT22;68;48.792;9.164;2023-03-01T03:13:52;-0.60;91.60
152;DHT22;68;48.792;9.164;2023-03-01T03:16:21;-0.70;91.60
152;DHT22;68;48.792;9.164;2023-03-01T03:18:48;-0.60;91.90
152;DHT22;68;48.792;9.164;2023-03-01T03:21:15;-0.60;91.90
152;DHT22;68;48.792;9.164;2023-03-01T03:23:43;-0.50;91.50
152;DHT22;68;48.792;9.164;2023-03-01T03:26:10;-0.50;91.20
152;DHT22;68;48.792;9.164;2023-03-01T03:28:39;-0.50;91.00
152;DHT22;68;48.792;9.164;2023-03-01T03:31:06;-0.40;90.80
152;DHT22;68;48.792;9.164;2023-03-01T03:33:35;-0.40;90.90
152;DHT22;68;48.792;9.164;2023-03-01T03:36:02;-0.80;91.10
152;DHT22;68;48.792;9.164;2023-03-01T03:38:29;-0.70;91.90
152;DHT22;68;48.792;9.164;2023-03-01T03:41:01;-0.80;92.00
152;DHT22;68;48.792;9.164;2023-03-01T03:43:30;-0.80;92.60
152;DHT22;68;48.792;9.164;2023-03-01T03:45:57;-0.80;92.70
152;DHT22;68;48.792;9.164;2023-03-01T03:48:25;-0.60;92.60
152;DHT22;68;48.792;9.164;2023-03-01T03:50:54;-0.50;92.70
152;DHT22;68;48.792;9.164;2023-03-01T03:53:23;-0.30;91.70
152;DHT22;68;48.792;9.164;2023-03-01T03:55:50;-0.50;91.00
152;DHT22;68;48.792;9.164;2023-03-01T03:58:18;-0.70;91.60
152;DHT22;68;48.792;9.164;2023-03-01T04:00:46;-0.70;92.30
152;DHT22;68;48.792;9.164;2023-03-01T04:03:14;-0.60;92.70
152;DHT22;68;48.792;9.164;2023-03-01T04:05:42;-0.50;92.60
152;DHT22;68;48.792;9.164;2023-03-01T04:08:10;-0.50;91.80
152;DHT22;68;48.792;9.164;2023-03-01T04:10:40;-0.50;92.20
152;DHT22;68;48.792;9.164;2023-03-01T04:13:10;-0.50;92.10
152;DHT22;68;48.792;9.164;2023-03-01T04:15:38;-0.60;92.00
152;DHT22;68;48.792;9.164;2023-03-01T04:18:05;-0.60;92.40
152;DHT22;68;48.792;9.164;2023-03-01T04:20:34;-0.50;92.50
152;DHT22;68;48.792;9.164;2023-03-01T04:23:04;-0.60;92.70
152;DHT22;68;48.792;9.164;2023-03-01T04:25:38;-0.80;93.00
152;DHT22;68;48.792;9.164;2023-03-01T04:28:05;-0.70;93.40
152;DHT22;68;48.792;9.164;2023-03-01T04:30:32;-0.60;93.50
152;DHT22;68;48.792;9.164;2023-03-01T04:33:02;-0.60;93.40
152;DHT22;68;48.792;9.164;2023-03-01T04:35:30;-0.50;93.40
152;DHT22;68;48.792;9.164;2023-03-01T04:37:56;-0.50;92.80
152;DHT22;68;48.792;9.164;2023-03-01T04:40:23;-0.60;92.90
152;DHT22;68;48.792;9.164;2023-03-01T04:42:51;-0.70;92.90
152;DHT22;68;48.792;9.164;2023-03-01T04:45:18;-0.70;93.10
152;DHT22;68;48.792;9.164;2023-03-01T04:47:46;-0.70;93.50
152;DHT22;68;48.792;9.164;2023-03-01T04:50:14;-0.70;93.70
152;DHT22;68;48.792;9.164;2023-03-01T04:52:42;-0.70;93.40
152;DHT22;68;48.792;9.164;2023-03-01T04:55:10;-0.60;93.10
152;DHT22;68;48.792;9.164;2023-03-01T04:57:37;-0.60;93.00
152;DHT22;68;48.792;9.164;2023-03-01T05:00:07;-0.60;92.80
152;DHT22;68;48.792;9.164;2023-03-01T05:02:46;-0.50;92.80
152;DHT22;68;48.792;9.164;2023-03-01T05:05:14;-0.50;92.80
152;DHT22;68;48.792;9.164;2023-03-01T05:07:41;-0.40;93.10
152;DHT22;68;48.792;9.164;2023-03-01T05:10:09;-0.30;92.70
152;DHT22;68;48.792;9.164;2023-03-01T05:12:36;-0.20;92.60
152;DHT22;68;48.792;9.164;2023-03-01T05:15:06;-0.20;92.20
152;DHT22;68;48.792;9.164;2023-03-01T05:17:33;-0.30;91.80
152;DHT22;68;48.792;9.164;2023-03-01T05:20:00;-0.30;91.80
152;DHT22;68;48.792;9.164;2023-03-01T05:22:31;-0.50;92.60
152;DHT22;68;48.792;9.164;2023-03-01T05:24:57;-0.50;93.10
152;DHT22;68;48.792;9.164;2023-03-01T05:27:24;-0.60;93.40
152;DHT22;68;48.792;9.164;2023-03-01T05:29:51;-0.50;93.40
152;DHT22;68;48.792;9.164;2023-03-01T05:32:19;-0.40;93.50
152;DHT22;68;48.792;9.164;2023-03-01T05:34:46;-0.40;93.20
152;DHT22;68;48.792;9.164;2023-03-01T05:37:13;-0.30;93.30
152;DHT22;68;48.792;9.164;2023-03-01T05:39:40;-0.20;93.00
152;DHT22;68;48.792;9.164;2023-03-01T05:42:11;-0.20;92.70
152;DHT22;68;48.792;9.164;2023-03-01T05:44:38;-0.10;93.30
152;DHT22;68;48.792;9.164;2023-03-01T05:47:04;0.00;92.80
152;DHT22;68;48.792;9.164;2023-03-01T05:49:33;0.00;92.40
152;DHT22;68;48.792;9.164;2023-03-01T05:52:00;0.00;92.50
152;DHT22;68;48.792;9.164;2023-03-01T05:54:26;-0.10;92.40
152;DHT22;68;48.792;9.164;2023-03-01T05:56:53;-0.20;92.20
152;DHT22;68;48.792;9.164;2023-03-01T05:59:20;-0.10;92.40
152;DHT22;68;48.792;9.164;2023-03-01T06:01:47;-0.30;92.20
152;DHT22;68;48.792;9.164;2023-03-01T06:04:13;-0.40;92.60
152;DHT22;68;48.792;9.164;2023-03-01T06:06:41;-0.40;93.00
152;DHT22;68;48.792;9.164;2023-03-01T06:09:08;-0.40;93.20
152;DHT22;68;48.792;9.164;2023-03-01T06:11:36;-0.30;93.30
152;DHT22;68;48.792;9.164;2023-03-01T06:14:03;-0.40;92.60
152;DHT22;68;48.792;9.164;2023-03-01T06:16:31;-0.30;92.30
152;DHT22;68;48.792;9.164;2023-03-01T06:18:58;-0.30;92.20
152;DHT22;68;48.792;9.164;2023-03-01T06:21:25;-0.20;92.20
152;DHT22;68;48.792;9.164;2023-03-01T06:23:53;-0.30;92.20
152;DHT22;68;48.792;9.164;2023-03-01T06:26:20;-0.30;92.90
152;DHT22;68;48.792;9.164;2023-03-01T06:28:47;-0.30;93.40
152;DHT22;68;48.792;9.164;2023-03-01T06:31:13;-0.20;93.40
152;DHT22;68;48.792;9.164;2023-03-01T06:33:40;-0.30;93.30
152;DHT22;68;48.792;9.164;2023-03-01T06:36:08;-0.40;93.40
152;DHT22;68;48.792;9.164;2023-03-01T06:38:35;-0.40;93.80
152;DHT22;68;48.792;9.164;2023-03-01T06:41:03;-0.40;93.80
152;DHT22;68;48.792;9.164;2023-03-01T06:43:30;-0.10;93.90
152;DHT22;68;48.792;9.164;2023-03-01T06:45:57;0.20;92.70
152;DHT22;68;48.792;9.164;2023-03-01T06:48:24;0.10;91.00
152;DHT22;68;48.792;9.164;2023-03-01T06:50:50;0.20;91.10
152;DHT22;68;48.792;9.164;2023-03-01T06:53:17;0.30;91.00
152;DHT22;68;48.792;9.164;2023-03-01T06:55:44;0.20;90.90
152;DHT22;68;48.792;9.164;2023-03-01T06:58:12;0.00;90.60
152;DHT22;68;48.792;9.164;2023-03-01T07:00:39;-0.10;91.20
152;DHT22;68;48.792;9.164;2023-03-01T07:03:06;0.10;91.50
152;DHT22;68;48.792;9.164;2023-03-01T07:05:33;0.00;90.70
152;DHT22;68;48.792;9.164;2023-03-01T07:08:00;0.00;90.70
152;DHT22;68;48.792;9.164;2023-03-01T07:10:27;0.00;90.80
152;DHT22;68;48.792;9.164;2023-03-01T07:12:55;-0.20;91.40
152;DHT22;68;48.792;9.164;2023-03-01T07:15:24;-0.10;91.70
152;DHT22;68;48.792;9.164;2023-03-01T07:17:51;-0.10;91.10
152;DHT22;68;48.792;9.164;2023-03-01T07:20:18;-0.30;91.20
152;DHT22;68;48.792;9.164;2023-03-01T07:22:48;-0.30;91.80
152;DHT22;68;48.792;9.164;2023-03-01T07:25:14;-0.20;91.60
152;DHT22;68;48.792;9.164;2023-03-01T07:27:41;-0.10;91.60
152;DHT22;68;48.792;9.164;2023-03-01T07:30:09;-0.10;91.10
152;DHT22;68;48.792;9.164;2023-03-01T07:32:37;-0.10;91.00
152;DHT22;68;48.792;9.164;2023-03-01T07:35:05;-0.10;91.50
152;DHT22;68;48.792;9.164;2023-03-01T07:37:32;-0.10;90.90
152;DHT22;68;48.792;9.164;2023-03-01T07:39:58;-0.20;91.00
152;DHT22;68;48.792;9.164;2023-03-01T07:42:25;-0.20;91.10
152;DHT22;68;48.792;9.164;2023-03-01T07:44:52;-0.10;91.30
152;DHT22;68;48.792;9.164;2023-03-01T07:47:19;-0.10;90.70
152;DHT22;68;48.792;9.164;2023-03-01T07:49:47;0.10;90.50
152;DHT22;68;48.792;9.164;2023-03-01T07:52:14;0.20;89.90
152;DHT22;68;48.792;9.164;2023-03-01T07:54:43;0.00;89.70
152;DHT22;68;48.792;9.164;2023-03-01T07:57:10;0.10;90.00
152;DHT22;68;48.792;9.164;2023-03-01T07:59:37;0.30;90.30
152;DHT22;68;48.792;9.164;2023-03-01T08:02:04;0.30;88.70
152;DHT22;68;48.792;9.164;2023-03-01T08:04:31;0.30;88.80
152;DHT22;68;48.792;9.164;2023-03-01T08:06:59;0.30;88.50
152;DHT22;68;48.792;9.164;2023-03-01T08:09:26;0.40;88.40
152;DHT22;68;48.792;9.164;2023-03-01T08:11:53;0.50;88.10
152;DHT22;68;48.792;9.164;2023-03-01T08:14:20;0.50;87.90
152;DHT22;68;48.792;9.164;2023-03-01T08:16:49;0.40;87.80
152;DHT22;68;48.792;9.164;2023-03-01T08:19:16;0.40;88.30
152;DHT22;68;48.792;9.164;2023-03-01T08:21:43;0.60;87.90
152;DHT22;68;48.792;9.164;2023-03-01T08:24:11;0.90;87.90
152;DHT22;68;48.792;9.164;2023-03-01T08:26:38;0.90;86.80
152;DHT22;68;48.792;9.164;2023-03-01T08:29:05;1.10;86.70
152;DHT22;68;48.792;9.164;2023-03-01T08:31:34;1.30;85.70
152;DHT22;68;48.792;9.164;2023-03-01T08:34:04;1.20;85.20
152;DHT22;68;48.792;9.164;2023-03-01T08:36:32;1.30;85.40
152;DHT22;68;48.792;9.164;2023-03-01T08:39:02;1.30;84.20
152;DHT22;68;48.792;9.164;2023-03-01T08:41:30;1.30;84.30
152;DHT22;68;48.792;9.164;2023-03-01T08:43:57;1.20;84.70
152;DHT22;68;48.792;9.164;2023-03-01T08:46:25;1.20;85.30
152;DHT22;68;48.792;9.164;2023-03-01T08:48:52;1.30;85.00
152;DHT22;68;48.792;9.164;2023-03-01T08:51:20;1.50;84.60
152;DHT22;68;48.792;9.164;2023-03-01T08:53:48;1.50;83.50
152;DHT22;68;48.792;9.164;2023-03-01T08:56:15;1.40;83.60
152;DHT22;68;48.792;9.164;2023-03-01T08:58:46;1.40;84.20
152;DHT22;68;48.792;9.164;2023-03-01T09:01:14;1.50;83.50
152;DHT22;68;48.792;9.164;2023-03-01T09:03:41;1.40;84.10
152;DHT22;68;48.792;9.164;2023-03-01T09:06:08;1.30;84.10
152;DHT22;68;48.792;9.164;2023-03-01T09:08:35;1.30;84.50
152;DHT22;68;48.792;9.164;2023-03-01T09:11:03;1.50;83.60
152;DHT22;68;48.792;9.164;2023-03-01T09:13:30;1.50;83.40
152;DHT22;68;48.792;9.164;2023-03-01T09:15:59;1.60;83.60
152;DHT22;68;48.792;9.164;2023-03-01T09:18:26;1.80;83.50
152;DHT22;68;48.792;9.164;2023-03-01T09:20:57;2.10;82.10
152;DHT22;68;48.792;9.164;2023-03-01T09:23:26;2.10;81.90
152;DHT22;68;48.792;9.164;2023-03-01T09:25:53;2.20;81.10
152;DHT22;68;48.792;9.164;2023-03-01T09:28:20;2.10;81.30
152;DHT22;68;48.792;9.164;2023-03-01T09:30:48;2.00;81.90
152;DHT22;68;48.792;9.164;2023-03-01T09:33:16;2.20;81.40
152;DHT22;68;48.792;9.164;2023-03-01T09:35:43;2.30;81.80
152;DHT22;68;48.792;9.164;2023-03-01T09:38:12;2.20;80.60
152;DHT22;68;48.792;9.164;2023-03-01T09:40:42;2.10;81.00
152;DHT22;68;48.792;9.164;2023-03-01T09:43:21;2.00;81.10
152;DHT22;68;48.792;9.164;2023-03-01T09:45:49;1.90;81.20
152;DHT22;68;48.792;9.164;2023-03-01T09:48:20;2.20;81.90
152;DHT22;68;48.792;9.164;2023-03-01T09:50:49;2.50;81.20
152;DHT22;68;48.792;9.164;2023-03-01T09:53:19;2.70;80.10
152;DHT22;68;48.792;9.164;2023-03-01T09:55:50;2.70;80.50
152;DHT22;68;48.792;9.164;2023-03-01T09:58:37;2.50;79.90
152;DHT22;68;48.792;9.164;2023-03-01T10:01:17;2.40;80.60
152;DHT22;68;48.792;9.164;2023-03-01T10:06:51;3.00;79.10
152;DHT22;68;48.792;9.164;2023-03-01T10:09:22;3.10;78.70
152;DHT22;68;48.792;9.164;2023-03-01T10:11:52;3.50;78.30
152;DHT22;68;48.792;9.164;2023-03-01T10:14:29;3.50;77.30
152;DHT22;68;48.792;9.164;2023-03-01T10:16:58;3.90;76.70
152;DHT22;68;48.792;9.164;2023-03-01T10:19:32;4.20;76.30
152;DHT22;68;48.792;9.164;2023-03-01T10:22:03;3.90;75.00
152;DHT22;68;48.792;9.164;2023-03-01T10:24:34;3.90;75.60
152;DHT22;68;48.792;9.164;2023-03-01T10:27:05;3.90;74.70
152;DHT22;68;48.792;9.164;2023-03-01T10:29:39;3.90;74.70
152;DHT22;68;48.792;9.164;2023-03-01T10:32:10;4.20;73.30
152;DHT22;68;48.792;9.164;2023-03-01T10:34:38;4.30;73.70
152;DHT22;68;48.792;9.164;2023-03-01T10:37:10;4.50;73.30
152;DHT22;68;48.792;9.164;2023-03-01T10:39:54;4.50;73.30
152;DHT22;68;48.792;9.164;2023-03-01T10:42:26;4.60;73.10
152;DHT22;68;48.792;9.164;2023-03-01T10:44:54;4.70;72.80
152;DHT22;68;48.792;9.164;2023-03-01T10:47:22;5.10;71.80
152;DHT22;68;48.792;9.164;2023-03-01T10:49:59;5.20;71.60
152;DHT22;68;48.792;9.164;2023-03-01T10:52:32;5.40;70.80
152;DHT22;68;48.792;9.164;2023-03-01T10:55:02;5.50;70.60
152;DHT22;68;48.792;9.164;2023-03-01T10:57:33;5.40;69.90
152;DHT22;68;48.792;9.164;2023-03-01T11:00:23;5.10;71.20
152;DHT22;68;48.792;9.164;2023-03-01T11:03:02;5.50;70.50
152;DHT22;68;48.792;9.164;2023-03-01T11:05:30;5.60;70.00
152;DHT22;68;48.792;9.164;2023-03-01T11:08:00;6.20;69.10
152;DHT22;68;48.792;9.164;2023-03-01T11:10:30;6.40;67.20
152;DHT22;68;48.792;9.164;2023-03-01T11:13:07;6.80;65.90
152;DHT22;68;48.792;9.164;2023-03-01T11:15:35;7.80;66.00
152;DHT22;68;48.792;9.164;2023-03-01T11:18:02;8.90;63.30
152;DHT22;68;48.792;9.164;2023-03-01T11:20:33;9.10;61.40
152;DHT22;68;48.792;9.164;2023-03-01T11:23:03;8.40;60.10
152;DHT22;68;48.792;9.164;2023-03-01T11:25:34;7.00;63.80
152;DHT22;68;48.792;9.164;2023-03-01T11:28:04;7.20;65.90
152;DHT22;68;48.792;9.164;2023-03-01T11:30:34;8.10;63.90
152;DHT22;68;48.792;9.164;2023-03-01T11:33:17;8.10;64.10
152;DHT22;68;48.792;9.164;2023-03-01T11:35:50;7.40;63.10
152;DHT22;68;48.792;9.164;2023-03-01T11:38:22;7.40;63.30
152;DHT22;68;48.792;9.164;2023-03-01T11:40:52;6.90;64.70
152;DHT22;68;48.792;9.164;2023-03-01T11:43:28;6.90;66.80
152;DHT22;68;48.792;9.164;2023-03-01T11:46:08;6.80;65.70
152;DHT22;68;48.792;9.164;2023-03-01T11:48:52;8.40;64.60
152;DHT22;68;48.792;9.164;2023-03-01T11:51:38;8.80;60.20
152;DHT22;68;48.792;9.164;2023-03-01T11:54:21;8.10;60.90
152;DHT22;68;48.792;9.164;2023-03-01T11:56:55;7.40;64.80
152;DHT22;68;48.792;9.164;2023-03-01T11:59:44;9.30;61.10
152;DHT22;68;48.792;9.164;2023-03-01T12:05:23;10.50;57.00
152;DHT22;68;48.792;9.164;2023-03-01T12:07:59;8.10;61.60
152;DHT22;68;48.792;9.164;2023-03-01T12:10:33;8.00;63.20
152;DHT22;68;48.792;9.164;2023-03-01T12:13:21;6.90;64.70
152;DHT22;68;48.792;9.164;2023-03-01T12:16:22;7.10;65.40
152;DHT22;68;48.792;9.164;2023-03-01T12:19:04;7.80;64.30
152;DHT22;68;48.792;9.164;2023-03-01T12:21:44;7.80;63.30
152;DHT22;68;48.792;9.164;2023-03-01T12:24:44;8.20;62.90
152;DHT22;68;48.792;9.164;2023-03-01T12:27:27;8.80;62.40
152;DHT22;68;48.792;9.164;2023-03-01T12:30:01;8.20;62.70
152;DHT22;68;48.792;9.164;2023-03-01T12:32:40;9.30;60.30
152;DHT22;68;48.792;9.164;2023-03-01T12:35:24;10.40;59.40
152;DHT22;68;48.792;9.164;2023-03-01T12:37:59;9.80;59.70
152;DHT22;68;48.792;9.164;2023-03-01T12:43:31;11.40;56.70
152;DHT22;68;48.792;9.164;2023-03-01T12:46:17;10.10;56.30
152;DHT22;68;48.792;9.164;2023-03-01T12:48:52;8.50;60.00
152;DHT22;68;48.792;9.164;2023-03-01T12:51:24;8.20;61.50
152;DHT22;68;48.792;9.164;2023-03-01T12:53:53;8.00;62.40
152;DHT22;68;48.792;9.164;2023-03-01T12:56:25;8.10;63.20
152;DHT22;68;48.792;9.164;2023-03-01T12:58:59;8.40;63.60
152;DHT22;68;48.792;9.164;2023-03-01T13:01:36;8.10;62.90
152;DHT22;68;48.792;9.164;2023-03-01T13:04:14;7.60;63.10
152;DHT22;68;48.792;9.164;2023-03-01T13:06:47;7.30;64.50
152;DHT22;68;48.792;9.164;2023-03-01T13:09:23;7.40;65.50
152;DHT22;68;48.792;9.164;2023-03-01T13:11:52;8.00;64.10
152;DHT22;68;48.792;9.164;2023-03-01T13:14:45;7.80;63.70
152;DHT22;68;48.792;9.164;2023-03-01T13:17:33;8.10;64.40
152;DHT22;68;48.792;9.164;2023-03-01T13:20:13;8.00;63.70
152;DHT22;68;48.792;9.164;2023-03-01T13:22:40;7.70;63.60
152;DHT22;68;48.792;9.164;2023-03-01T13:25:16;7.60;65.30
152;DHT22;68;48.792;9.164;2023-03-01T13:27:45;7.60;64.70
152;DHT22;68;48.792;9.164;2023-03-01T13:30:41;8.00;65.20
152;DHT22;68;48.792;9.164;2023-03-01T13:33:39;7.80;64.50
152;DHT22;68;48.792;9.164;2023-03-01T13:36:07;7.80;64.00
152;DHT22;68;48.792;9.164;2023-03-01T13:38:38;7.40;65.60
152;DHT22;68;48.792;9.164;2023-03-01T13:41:07;7.60;65.10
152;DHT22;68;48.792;9.164;2023-03-01T13:43:37;8.00;64.40
152;DHT22;68;48.792;9.164;2023-03-01T13:46:10;8.10;64.30
152;DHT22;68;48.792;9.164;2023-03-01T13:48:38;8.20;64.80
152;DHT22;68;48.792;9.164;2023-03-01T13:51:08;8.00;63.90
152;DHT22;68;48.792;9.164;2023-03-01T13:53:38;8.10;64.90
152;DHT22;68;48.792;9.164;2023-03-01T13:56:09;7.60;64.70
152;DHT22;68;48.792;9.164;2023-03-01T13:58:53;7.40;65.40
152;DHT22;68;48.792;9.164;2023-03-01T14:01:23;7.50;65.40
152;DHT22;68;48.792;9.164;2023-03-01T14:03:50;7.40;66.00
152;DHT22;68;48.792;9.164;2023-03-01T14:06:20;7.80;65.60
152;DHT22;68;48.792;9.164;2023-03-01T14:08:49;7.50;65.20
152;DHT22;68;48.792;9.164;2023-03-01T14:14:30;7.20;66.80
152;DHT22;68;48.792;9.164;2023-03-01T14:17:09;7.20;66.60
152;DHT22;68;48.792;9.164;2023-03-01T14:19:40;7.10;66.90
152;DHT22;68;48.792;9.164;2023-03-01T14:22:17;7.00;67.40
152;DHT22;68;48.792;9.164;2023-03-01T14:24:48;7.00;67.20
152;DHT22;68;48.792;9.164;2023-03-01T14:27:16;7.00;67.40
152;DHT22;68;48.792;9.164;2023-03-01T14:29:54;7.20;68.00
152;DHT22;68;48.792;9.164;2023-03-01T14:32:24;7.40;66.90
152;DHT22;68;48.792;9.164;2023-03-01T14:34:51;7.60;67.10
152;DHT22;68;48.792;9.164;2023-03-01T14:37:21;7.60;66.90
152;DHT22;68;48.792;9.164;2023-03-01T14:39:48;7.40;67.00
152;DHT22;68;48.792;9.164;2023-03-01T14:42:16;7.30;66.90
152;DHT22;68;48.792;9.164;2023-03-01T14:44:47;7.20;67.40
152;DHT22;68;48.792;9.164;2023-03-01T14:47:23;7.00;67.80
152;DHT22;68;48.792;9.164;2023-03-01T14:49:56;7.10;68.10
152;DHT22;68;48.792;9.164;2023-03-01T14:52:31;7.20;68.00
152;DHT22;68;48.792;9.164;2023-03-01T14:54:59;7.20;67.30
152;DHT22;68;48.792;9.164;2023-03-01T14:57:27;7.10;67.90
152;DHT22;68;48.792;9.164;2023-03-01T14:59:58;7.10;68.00
152;DHT22;68;48.792;9.164;2023-03-01T15:02:27;7.10;68.00
152;DHT22;68;48.792;9.164;2023-03-01T15:04:57;7.10;67.80
152;DHT22;68;48.792;9.164;2023-03-01T15:07:29;7.10;67.70
152;DHT22;68;48.792;9.164;2023-03-01T15:09:57;7.10;68.20
152;DHT22;68;48.792;9.164;2023-03-01T15:12:38;7.30;67.80
152;DHT22;68;48.792;9.164;2023-03-01T15:15:34;7.30;68.20
152;DHT22;68;48.792;9.164;2023-03-01T15:18:03;7.30;68.00
152;DHT22;68;48.792;9.164;2023-03-01T15:20:30;7.20;67.60
152;DHT22;68;48.792;9.164;2023-03-01T15:23:01;7.20;68.00
152;DHT22;68;48.792;9.164;2023-03-01T15:25:29;7.30;68.10
152;DHT22;68;48.792;9.164;2023-03-01T15:27:58;7.20;67.60
152;DHT22;68;48.792;9.164;2023-03-01T15:30:27;7.00;68.20
152;DHT22;68;48.792;9.164;2023-03-01T15:33:35;6.90;68.20
152;DHT22;68;48.792;9.164;2023-03-01T15:36:30;6.80;68.70
152;DHT22;68;48.792;9.164;2023-03-01T15:39:03;6.90;68.90
152;DHT22;68;48.792;9.164;2023-03-01T15:41:37;6.90;69.20
152;DHT22;68;48.792;9.164;2023-03-01T15:44:15;7.00;68.80
152;DHT22;68;48.792;9.164;2023-03-01T15:46:46;7.00;68.30
152;DHT22;68;48.792;9.164;2023-03-01T15:49:27;6.80;68.80
152;DHT22;68;48.792;9.164;2023-03-01T15:51:59;6.90;68.70
152;DHT22;68;48.792;9.164;2023-03-01T15:54:26;6.90;68.80
152;DHT22;68;48.792;9.164;2023-03-01T15:56:53;6.80;68.50
152;DHT22;68;48.792;9.164;2023-03-01T15:59:21;6.80;68.60
152;DHT22;68;48.792;9.164;2023-03-01T16:01:48;6.80;68.40
152;DHT22;68;48.792;9.164;2023-03-01T16:04:16;6.80;68.60
152;DHT22;68;48.792;9.164;2023-03-01T16:06:52;6.70;68.20
152;DHT22;68;48.792;9.164;2023-03-01T16:09:22;6.80;68.50
152;DHT22;68;48.792;9.164;2023-03-01T16:11:50;6.90;68.50
152;DHT22;68;48.792;9.164;2023-03-01T16:14:17;6.70;67.90
152;DHT22;68;48.792;9.164;2023-03-01T16:16:45;6.80;68.40
152;DHT22;68;48.792;9.164;2023-03-01T16:19:13;7.00;68.30
152;DHT22;68;48.792;9.164;2023-03-01T16:21:40;7.10;68.00
152;DHT22;68;48.792;9.164;2023-03-01T16:24:09;7.00;67.90
152;DHT22;68;48.792;9.164;2023-03-01T16:26:37;6.90;67.60
152;DHT22;68;48.792;9.164;2023-03-01T16:29:04;6.90;67.80
152;DHT22;68;48.792;9.164;2023-03-01T16:31:31;6.70;68.10
152;DHT22;68;48.792;9.164;2023-03-01T16:33:59;6.70;68.30
152;DHT22;68;48.792;9.164;2023-03-01T16:36:26;6.60;68.40
152;DHT22;68;48.792;9.164;2023-03-01T16:38:55;6.60;68.80
152;DHT22;68;48.792;9.164;2023-03-01T16:41:25;6.50;69.00
152;DHT22;68;48.792;9.164;2023-03-01T16:43:52;6.40;69.00
152;DHT22;68;48.792;9.164;2023-03-01T16:46:20;6.40;69.40
152;DHT22;68;48.792;9.164;2023-03-01T16:48:48;6.30;69.30
152;DHT22;68;48.792;9.164;2023-03-01T16:51:15;6.20;69.50
152;DHT22;68;48.792;9.164;2023-03-01T16:53:42;6.20;69.50
152;DHT22;68;48.792;9.164;2023-03-01T16:56:10;6.20;69.70
152;DHT22;68;48.792;9.164;2023-03-01T16:58:40;6.10;70.00
152;DHT22;68;48.792;9.164;2023-03-01T17:01:08;6.10;70.10
152;DHT22;68;48.792;9.164;2023-03-01T17:03:37;6.20;70.60
152;DHT22;68;48.792;9.164;2023-03-01T17:06:05;6.20;70.10
152;DHT22;68;48.792;9.164;2023-03-01T17:08:33;6.10;70.30
152;DHT22;68;48.792;9.164;2023-03-01T17:11:04;6.10;70.10
152;DHT22;68;48.792;9.164;2023-03-01T17:13:32;6.00;70.40
152;DHT22;68;48.792;9.164;2023-03-01T17:16:02;5.90;70.70
152;DHT22;68;48.792;9.164;2023-03-01T17:18:29;5.80;70.90
152;DHT22;68;48.792;9.164;2023-03-01T17:20:56;5.80;70.90
152;DHT22;68;48.792;9.164;2023-03-01T17:23:23;5.80;71.00
152;DHT22;68;48.792;9.164;2023-03-01T17:25:50;5.70;71.20
152;DHT22;68;48.792;9.164;2023-03-01T17:28:20;5.80;71.90
152;DHT22;68;48.792;9.164;2023-03-01T17:30:47;6.00;71.40
152;DHT22;68;48.792;9.164;2023-03-01T17:33:16;6.00;70.40
152;DHT22;68;48.792;9.164;2023-03-01T17:35:43;5.90;71.30